Time;durP1;ratioP1;P1;durP2;ratioP2;P2;SDS_P1;SDS_P2;PMS_P1;PMS_P2;Temp;Humidity;BMP_temperature;BMP_pressure;BME280_temperature;BME280_humidity;BME280_pressure;Samples;Min_cycle;Max_cycle;Signal;HPM_P1;HPM_P2
2023/11/06 00:00:38;;;;;;;3.80;3.43;;;12.70;99.90;;;;;;4953282;28;20429;-79
2023/11/06 00:03:04;;;;;;;4.60;3.33;;;12.70;99.90;;;;;;4952040;28;20715;-78
2023/11/06 00:05:29;;;;;;;3.57;3.40;;;12.70;99.90;;;;;;4952044;29;20180;-78
2023/11/06 00:07:55;;;;;;;5.40;3.60;;;12.70;99.90;;;;;;4953901;28;20587;-78
2023/11/06 00:10:21;;;;;;;3.83;3.37;;;12.80;99.90;;;;;;4953230;29;20215;-79
2023/11/06 00:12:47;;;;;;;4.57;3.70;;;12.80;99.90;;;;;;4970429;28;20549;-78
2023/11/06 00:15:16;;;;;;;3.27;3.10;;;12.80;99.90;;;;;;4957203;29;20471;-78
2023/11/06 00:17:42;;;;;;;3.60;3.30;;;12.80;99.90;;;;;;4957275;28;20185;-77
2023/11/06 00:20:10;;;;;;;3.97;3.43;;;12.80;99.90;;;;;;4956325;28;20425;-79
2023/11/06 00:22:36;;;;;;;5.67;3.60;;;12.80;99.90;;;;;;4958308;28;20177;-79
2023/11/06 00:25:04;;;;;;;3.77;3.57;;;12.80;99.90;;;;;;4956660;29;20436;-79
2023/11/06 00:27:30;;;;;;;3.17;2.97;;;12.80;99.90;;;;;;4957955;28;20490;-79
2023/11/06 00:29:56;;;;;;;3.83;3.50;;;12.80;99.90;;;;;;4956603;29;20472;-79
2023/11/06 00:32:21;;;;;;;3.57;3.20;;;12.80;99.90;;;;;;4957020;29;20178;-79
2023/11/06 00:34:47;;;;;;;3.97;3.67;;;12.80;99.90;;;;;;4956182;29;20204;-75
2023/11/06 00:37:13;;;;;;;4.40;3.40;;;12.80;99.90;;;;;;4958000;29;20270;-79
2023/11/06 00:39:39;;;;;;;2.90;2.80;;;12.80;99.90;;;;;;4956732;28;20181;-79
2023/11/06 00:42:04;;;;;;;5.50;3.20;;;12.80;99.90;;;;;;4956253;28;20661;-78
2023/11/06 00:44:31;;;;;;;7.20;3.60;;;12.80;99.90;;;;;;4956229;29;20186;-79
2023/11/06 00:46:57;;;;;;;3.93;3.40;;;13.00;99.90;;;;;;4956229;28;20482;-79
2023/11/06 00:49:22;;;;;;;3.90;3.10;;;12.70;99.90;;;;;;4956677;28;20435;-79
2023/11/06 00:51:48;;;;;;;3.00;2.90;;;12.80;99.90;;;;;;4956772;29;20417;-75
2023/11/06 00:54:14;;;;;;;3.33;3.03;;;12.80;99.90;;;;;;4956613;28;20549;-80
2023/11/06 00:56:40;;;;;;;3.10;2.90;;;12.80;99.90;;;;;;4956359;28;20191;-78
2023/11/06 00:59:06;;;;;;;3.70;3.20;;;12.80;99.90;;;;;;4956879;28;20814;-77
2023/11/06 01:01:32;;;;;;;3.47;2.83;;;12.90;99.90;;;;;;4939551;29;20492;-79
2023/11/06 01:03:58;;;;;;;3.00;2.90;;;12.80;99.90;;;;;;4955741;29;20181;-79
2023/11/06 01:06:24;;;;;;;3.90;3.67;;;12.80;99.90;;;;;;4957444;29;20420;-76
2023/11/06 01:08:51;;;;;;;3.87;3.60;;;12.80;99.90;;;;;;4955778;28;20191;-79
2023/11/06 01:11:17;;;;;;;4.40;3.10;;;12.80;99.90;;;;;;4951771;29;20468;-80
2023/11/06 01:13:43;;;;;;;3.50;3.20;;;12.90;99.90;;;;;;4938243;29;20413;-78
2023/11/06 01:16:09;;;;;;;4.47;3.17;;;12.90;99.90;;;;;;4951749;29;20555;-76
2023/11/06 01:18:34;;;;;;;3.50;3.23;;;12.90;99.90;;;;;;4956188;29;20187;-79
2023/11/06 01:21:00;;;;;;;6.33;3.00;;;12.90;99.90;;;;;;4956640;29;20899;-77
2023/11/06 01:23:26;;;;;;;5.30;3.37;;;12.90;99.90;;;;;;4954984;28;20201;-76
2023/11/06 01:25:52;;;;;;;3.00;2.90;;;13.00;99.90;;;;;;4954104;29;20461;-77
2023/11/06 01:28:18;;;;;;;3.40;3.10;;;13.00;99.90;;;;;;4955522;29;20184;-70
2023/11/06 01:30:44;;;;;;;4.67;3.10;;;13.00;99.90;;;;;;4956864;29;20242;-78
2023/11/06 01:33:10;;;;;;;5.13;3.30;;;12.90;99.90;;;;;;4954283;29;20206;-77
2023/11/06 01:35:37;;;;;;;6.23;3.00;;;12.90;99.90;;;;;;4956134;29;20409;-76
2023/11/06 01:38:02;;;;;;;3.30;2.97;;;12.90;99.90;;;;;;4956320;28;20543;-76
2023/11/06 01:40:32;;;;;;;2.90;2.60;;;12.90;99.90;;;;;;4955743;29;20440;-78
2023/11/06 01:43:08;;;;;;;3.23;2.93;;;12.90;99.90;;;;;;4955890;29;20182;-76
2023/11/06 01:45:34;;;;;;;5.33;2.93;;;12.90;99.90;;;;;;4937510;29;20523;-77
2023/11/06 01:48:05;;;;;;;4.07;2.90;;;12.90;99.90;;;;;;4951017;29;20442;-77
2023/11/06 01:50:35;;;;;;;3.13;2.80;;;12.80;99.90;;;;;;4955523;28;20550;-76
2023/11/06 01:53:04;;;;;;;2.60;2.50;;;12.70;99.90;;;;;;4954853;28;20442;-76
2023/11/06 01:55:31;;;;;;;4.80;2.90;;;12.80;99.90;;;;;;4956619;28;20408;-76
2023/11/06 01:57:57;;;;;;;3.70;2.80;;;12.70;99.90;;;;;;4953365;28;21020;-77
2023/11/06 02:00:26;;;;;;;3.40;3.20;;;12.70;99.90;;;;;;4942139;29;20439;-78
2023/11/06 02:02:52;;;;;;;3.53;3.10;;;12.80;99.90;;;;;;4955063;28;20450;-69
2023/11/06 02:05:18;;;;;;;4.00;2.90;;;12.80;99.90;;;;;;4956369;29;20443;-74
2023/11/06 02:07:45;;;;;;;2.90;2.70;;;12.80;99.90;;;;;;4954045;29;20179;-76
2023/11/06 02:10:11;;;;;;;3.00;2.80;;;12.90;99.90;;;;;;4952575;28;20506;-75
2023/11/06 02:12:38;;;;;;;3.57;2.90;;;12.90;99.90;;;;;;4956176;28;20429;-76
2023/11/06 02:15:05;;;;;;;2.80;2.60;;;12.90;99.90;;;;;;4954520;29;20481;-76
2023/11/06 02:17:31;;;;;;;7.23;3.00;;;12.90;99.90;;;;;;4955371;28;20958;-77
2023/11/06 02:19:56;;;;;;;3.10;2.80;;;12.80;99.90;;;;;;4955253;29;20431;-76
2023/11/06 02:22:23;;;;;;;3.47;2.80;;;12.80;99.90;;;;;;4954990;29;20194;-74
2023/11/06 02:24:50;;;;;;;3.20;2.90;;;12.80;99.90;;;;;;4954880;28;20640;-76
2023/11/06 02:27:17;;;;;;;3.77;3.10;;;12.80;99.90;;;;;;4955467;28;20403;-78
2023/11/06 02:29:43;;;;;;;3.27;3.07;;;12.80;99.90;;;;;;4955035;28;20781;-77
2023/11/06 02:32:10;;;;;;;2.90;2.80;;;12.70;99.90;;;;;;4953440;28;20461;-76
2023/11/06 02:34:40;;;;;;;3.40;3.10;;;12.70;99.90;;;;;;4955537;28;20462;-76
2023/11/06 02:37:08;;;;;;;3.60;3.20;;;12.70;99.90;;;;;;4954242;28;20465;-76
2023/11/06 02:39:34;;;;;;;2.60;2.40;;;12.80;99.90;;;;;;4954535;28;20802;-75
2023/11/06 02:42:05;;;;;;;2.97;2.63;;;12.80;99.90;;;;;;4955185;29;20413;-76
2023/11/06 02:44:31;;;;;;;3.77;3.30;;;12.80;99.90;;;;;;4955299;29;20861;-75
2023/11/06 02:46:57;;;;;;;2.90;2.70;;;12.80;99.90;;;;;;4953765;28;20519;-75
2023/11/06 02:49:26;;;;;;;3.30;3.00;;;12.80;99.90;;;;;;4954477;28;20427;-78
2023/11/06 02:51:53;;;;;;;3.27;2.93;;;12.70;99.90;;;;;;4955602;28;20427;-81
2023/11/06 02:54:22;;;;;;;3.17;2.97;;;12.70;99.90;;;;;;4953824;28;20517;-79
2023/11/06 02:56:49;;;;;;;3.37;3.17;;;12.70;99.90;;;;;;4969389;28;20439;-80
2023/11/06 02:59:15;;;;;;;3.30;3.10;;;12.70;99.90;;;;;;4954907;28;20443;-77
2023/11/06 03:01:42;;;;;;;3.93;3.40;;;12.70;99.90;;;;;;4955375;29;20415;-80
2023/11/06 03:04:12;;;;;;;3.10;2.80;;;12.60;99.90;;;;;;4954613;28;20437;-77
2023/11/06 03:06:40;;;;;;;3.50;3.13;;;12.60;99.90;;;;;;4953813;28;20423;-78
2023/11/06 03:09:06;;;;;;;3.10;2.83;;;12.50;99.90;;;;;;4954695;28;20427;-79
2023/11/06 03:11:32;;;;;;;3.87;3.30;;;12.60;99.90;;;;;;4955124;28;20853;-77
2023/11/06 03:13:58;;;;;;;3.30;2.90;;;12.60;99.90;;;;;;4954215;28;20833;-79
2023/11/06 03:16:24;;;;;;;3.43;2.90;;;12.60;99.90;;;;;;4954785;28;20454;-75
2023/11/06 03:18:49;;;;;;;3.60;2.97;;;12.70;99.90;;;;;;4953824;29;20474;-77
2023/11/06 03:21:15;;;;;;;3.70;2.70;;;12.70;99.90;;;;;;4954085;29;20423;-79
2023/11/06 03:23:41;;;;;;;2.90;2.80;;;12.70;99.90;;;;;;4953778;29;20183;-75
2023/11/06 03:26:07;;;;;;;2.77;2.50;;;12.70;99.90;;;;;;4954195;28;20177;-75
2023/11/06 03:28:34;;;;;;;2.90;2.80;;;12.70;99.90;;;;;;4955246;28;20229;-79
2023/11/06 03:30:59;;;;;;;2.97;2.87;;;12.70;99.90;;;;;;4954241;28;20242;-79
2023/11/06 03:33:26;;;;;;;3.33;3.13;;;12.70;99.90;;;;;;4953838;28;20825;-79
2023/11/06 03:35:51;;;;;;;3.00;2.87;;;12.70;99.90;;;;;;4953921;28;20196;-80
2023/11/06 03:38:17;;;;;;;2.67;2.50;;;12.70;99.90;;;;;;4953958;28;20501;-79
2023/11/06 03:40:43;;;;;;;2.90;2.70;;;12.70;99.90;;;;;;4954846;28;20506;-76
2023/11/06 03:43:08;;;;;;;2.63;2.43;;;12.70;99.90;;;;;;4954133;28;20186;-79
2023/11/06 03:45:34;;;;;;;3.00;2.80;;;12.70;99.90;;;;;;4954805;29;20234;-76
2023/11/06 03:48:00;;;;;;;2.80;2.70;;;12.70;99.90;;;;;;4953406;28;20195;-76
2023/11/06 03:50:26;;;;;;;2.70;2.63;;;12.70;99.90;;;;;;4952441;29;20263;-76
2023/11/06 03:52:51;;;;;;;3.00;2.80;;;12.70;99.90;;;;;;4954637;28;20175;-78
2023/11/06 03:55:17;;;;;;;2.97;2.70;;;12.60;99.90;;;;;;4953865;28;20401;-75
2023/11/06 03:57:43;;;;;;;3.07;2.87;;;12.70;99.90;;;;;;4954861;28;20247;-80
2023/11/06 04:00:11;;;;;;;2.80;2.70;;;12.70;99.90;;;;;;4953974;28;20180;-77
2023/11/06 04:02:37;;;;;;;3.03;2.90;;;12.60;99.90;;;;;;4954714;28;20559;-79
2023/11/06 04:05:05;;;;;;;3.63;2.63;;;12.70;99.90;;;;;;4951955;29;20874;-78
2023/11/06 04:07:30;;;;;;;6.13;2.90;;;12.70;99.90;;;;;;4953999;28;20771;-78
2023/11/06 04:09:56;;;;;;;3.20;3.00;;;12.70;99.90;;;;;;4954372;29;20459;-78
2023/11/06 04:12:22;;;;;;;6.00;2.70;;;12.70;99.90;;;;;;4953534;28;20188;-76
2023/11/06 04:14:49;;;;;;;3.10;2.80;;;12.70;99.90;;;;;;4954163;28;20229;-77
2023/11/06 04:17:15;;;;;;;2.87;2.77;;;12.70;99.90;;;;;;4953915;28;20411;-79
2023/11/06 04:19:41;;;;;;;3.20;3.00;;;12.80;99.90;;;;;;4954487;28;20483;-72
2023/11/06 04:22:07;;;;;;;3.47;3.17;;;12.70;99.90;;;;;;4952931;28;20907;-72
2023/11/06 04:24:33;;;;;;;3.00;2.80;;;12.70;99.90;;;;;;4951552;28;20463;-72
2023/11/06 04:26:59;;;;;;;7.53;3.33;;;12.70;99.90;;;;;;4953379;28;20440;-72
2023/11/06 04:29:25;;;;;;;3.83;2.83;;;12.60;99.90;;;;;;4954253;28;20829;-72
2023/11/06 04:31:51;;;;;;;3.40;3.10;;;12.70;99.90;;;;;;4954187;29;20535;-72
2023/11/06 04:34:17;;;;;;;3.90;3.70;;;12.70;99.90;;;;;;4953366;28;20651;-72
2023/11/06 04:36:43;;;;;;;5.10;3.23;;;12.70;99.90;;;;;;4954437;29;20399;-72
2023/11/06 04:39:10;;;;;;;3.23;3.03;;;12.70;99.90;;;;;;4947955;29;20656;-71
2023/11/06 04:41:37;;;;;;;3.97;3.20;;;12.70;99.90;;;;;;4935016;29;20193;-72
2023/11/06 04:44:05;;;;;;;5.00;3.20;;;12.60;99.90;;;;;;4942024;29;20465;-71
2023/11/06 04:46:31;;;;;;;3.10;2.90;;;12.60;99.90;;;;;;4954111;28;20423;-72
2023/11/06 04:48:57;;;;;;;3.63;3.33;;;12.60;99.90;;;;;;4954125;28;20411;-72
2023/11/06 04:51:22;;;;;;;7.03;6.70;;;12.60;99.90;;;;;;4953439;29;20553;-71
2023/11/06 04:53:48;;;;;;;2.17;1.80;;;12.60;99.90;;;;;;4952831;29;20190;-72
2023/11/06 04:56:14;;;;;;;5.70;2.10;;;12.70;99.90;;;;;;4953200;28;20580;-72
2023/11/06 04:58:40;;;;;;;6.60;6.17;;;12.70;99.90;;;;;;4954278;28;20497;-72
2023/11/06 05:01:08;;;;;;;2.30;1.70;;;12.60;99.90;;;;;;4956151;29;20185;-71
2023/11/06 05:03:35;;;;;;;1.40;1.27;;;12.70;99.90;;;;;;4956712;29;20214;-72
2023/11/06 05:06:01;;;;;;;454.73;309.53;;;12.70;99.90;;;;;;4972559;28;20954;-72
2023/11/06 05:08:29;;;;;;;14.97;8.83;;;12.70;99.90;;;;;;4956732;28;20520;-72
2023/11/06 05:10:56;;;;;;;4.77;4.40;;;12.70;99.90;;;;;;4957376;28;20546;-72
2023/11/06 05:13:22;;;;;;;3.50;3.30;;;12.80;99.90;;;;;;4956836;28;20418;-71
2023/11/06 05:15:48;;;;;;;3.80;3.50;;;12.80;99.90;;;;;;4957378;28;20800;-72
2023/11/06 05:18:14;;;;;;;4.87;2.57;;;12.70;99.90;;;;;;4956493;28;20422;-72
2023/11/06 05:20:43;;;;;;;2.40;2.00;;;12.70;99.90;;;;;;4956413;28;20577;-71
2023/11/06 05:23:09;;;;;;;5.87;4.10;;;12.70;99.90;;;;;;4952894;28;20531;-71
2023/11/06 05:25:36;;;;;;;2.60;2.30;;;12.60;99.90;;;;;;4956657;28;20863;-71
2023/11/06 05:28:02;;;;;;;4.20;2.60;;;12.60;99.90;;;;;;4956922;28;20201;-71
2023/11/06 05:30:29;;;;;;;5.77;5.37;;;12.50;99.90;;;;;;4955733;28;20506;-73
2023/11/06 05:32:59;;;;;;;4.10;1.87;;;12.50;99.90;;;;;;4957077;28;20409;-72
2023/11/06 05:35:25;;;;;;;2.40;2.27;;;12.50;99.90;;;;;;4956535;28;20414;-73
2023/11/06 05:37:52;;;;;;;5.90;5.40;;;12.50;99.90;;;;;;4956957;28;20414;-73
2023/11/06 05:40:18;;;;;;;3.57;2.37;;;12.60;99.90;;;;;;4956377;29;20444;-72
2023/11/06 05:42:44;;;;;;;4.60;2.47;;;12.50;99.90;;;;;;4955684;29;20892;-72
2023/11/06 05:45:10;;;;;;;3.07;2.80;;;12.50;99.90;;;;;;4955536;28;20449;-72
2023/11/06 05:47:36;;;;;;;5.90;3.60;;;12.50;99.90;;;;;;4957066;29;20191;-72
2023/11/06 05:50:02;;;;;;;7.50;5.70;;;12.60;99.90;;;;;;4956726;28;20942;-72
2023/11/06 05:52:28;;;;;;;4.53;4.03;;;12.50;99.90;;;;;;4955777;28;20218;-77
2023/11/06 05:54:54;;;;;;;2.67;2.33;;;12.50;99.90;;;;;;4956383;29;20493;-78
2023/11/06 05:57:20;;;;;;;2.30;2.10;;;12.50;99.90;;;;;;4955727;28;20657;-80
2023/11/06 05:59:45;;;;;;;4.10;2.23;;;12.80;99.90;;;;;;4955091;29;20252;-77
2023/11/06 06:02:11;;;;;;;4.77;3.40;;;12.60;99.90;;;;;;4955747;29;20264;-77
2023/11/06 06:04:40;;;;;;;4.13;3.73;;;12.50;99.90;;;;;;4956538;28;20182;-78
2023/11/06 06:07:06;;;;;;;10.97;3.77;;;12.50;99.90;;;;;;4943085;28;20188;-64
2023/11/06 06:09:37;;;;;;;5.80;3.90;;;12.50;99.90;;;;;;4954746;28;20415;-80
2023/11/06 06:12:03;;;;;;;7.93;6.90;;;12.50;99.90;;;;;;4945279;29;20429;-81
2023/11/06 06:14:29;;;;;;;4.97;3.30;;;12.50;99.90;;;;;;4970209;28;20422;-80
2023/11/06 06:16:54;;;;;;;5.13;3.83;;;12.50;99.90;;;;;;4951678;29;20449;-81
2023/11/06 06:19:21;;;;;;;7.50;6.90;;;12.50;99.90;;;;;;4955094;29;20183;-78
2023/11/06 06:21:48;;;;;;;3.80;3.50;;;12.50;99.90;;;;;;4956010;28;20185;-80
2023/11/06 06:24:15;;;;;;;4.80;2.80;;;12.50;99.90;;;;;;4945501;28;20784;-79
2023/11/06 06:26:40;;;;;;;11.13;8.67;;;12.50;99.90;;;;;;4954602;29;20804;-80
2023/11/06 06:29:06;;;;;;;6.23;4.87;;;12.40;99.90;;;;;;4971535;28;20427;-80
2023/11/06 06:31:32;;;;;;;6.87;3.57;;;12.50;99.90;;;;;;4955048;28;20202;-80
2023/11/06 06:33:58;;;;;;;6.03;3.97;;;12.50;99.90;;;;;;4953042;29;20420;-81
2023/11/06 06:36:24;;;;;;;6.93;4.43;;;12.50;99.90;;;;;;4952103;29;20195;-80
2023/11/06 06:38:51;;;;;;;8.80;3.53;;;12.70;99.90;;;;;;4946230;29;20521;-81
2023/11/06 06:41:17;;;;;;;4.67;3.70;;;12.50;99.90;;;;;;4952624;29;20451;-74
2023/11/06 06:43:43;;;;;;;6.43;2.90;;;12.50;99.90;;;;;;4953841;29;20424;-70
2023/11/06 06:46:11;;;;;;;8.67;6.00;;;12.50;99.90;;;;;;4954401;29;20183;-63
2023/11/06 06:48:37;;;;;;;9.87;5.20;;;12.60;99.90;;;;;;4955151;29;20437;-66
2023/11/06 06:51:04;;;;;;;11.10;5.90;;;12.80;99.90;;;;;;4955118;29;20953;-65
2023/11/06 06:53:29;;;;;;;6.80;6.10;;;13.20;99.90;;;;;;4954992;28;20183;-66
2023/11/06 06:55:55;;;;;;;8.80;7.90;;;13.40;99.90;;;;;;4953961;29;20519;-66
2023/11/06 06:58:23;;;;;;;11.13;6.90;;;13.70;99.90;;;;;;4952878;28;20184;-67
2023/11/06 07:00:49;;;;;;;8.60;6.40;;;13.90;99.90;;;;;;4953196;28;20268;-67
2023/11/06 07:03:15;;;;;;;7.83;6.13;;;14.00;99.90;;;;;;4953962;28;20543;-66
2023/11/06 07:05:41;;;;;;;6.07;5.47;;;14.20;99.90;;;;;;4953257;29;20192;-67
2023/11/06 07:08:07;;;;;;;8.10;5.47;;;14.40;99.90;;;;;;4954225;28;20251;-67
2023/11/06 07:10:33;;;;;;;5.60;5.00;;;14.50;99.90;;;;;;4953490;28;21060;-67
2023/11/06 07:12:59;;;;;;;7.77;5.80;;;14.60;99.90;;;;;;4954284;28;20441;-66
2023/11/06 07:15:25;;;;;;;12.23;7.23;;;14.60;99.90;;;;;;4952513;28;20275;-67
2023/11/06 07:17:52;;;;;;;9.90;8.10;;;14.50;99.90;;;;;;4952051;28;20487;-67
2023/11/06 07:20:18;;;;;;;9.97;4.70;;;14.70;99.90;;;;;;4953044;28;20488;-66
2023/11/06 07:22:44;;;;;;;5.53;4.70;;;14.80;99.90;;;;;;4954607;28;20802;-67
2023/11/06 07:25:10;;;;;;;5.60;3.70;;;14.80;99.90;;;;;;4952094;28;20197;-62
2023/11/06 07:27:37;;;;;;;8.40;7.47;;;14.70;99.90;;;;;;4953953;29;20425;-67
2023/11/06 07:30:07;;;;;;;6.03;5.47;;;14.70;99.90;;;;;;4953638;29;20458;-68
2023/11/06 07:32:33;;;;;;;11.50;6.50;;;14.80;99.90;;;;;;4954080;28;20435;-68
2023/11/06 07:34:58;;;;;;;8.30;4.00;;;14.90;99.90;;;;;;4937261;29;20941;-67
2023/11/06 07:37:24;;;;;;;7.27;3.90;;;15.00;99.90;;;;;;4952255;29;20179;-67
2023/11/06 07:39:50;;;;;;;6.93;3.90;;;15.10;99.90;;;;;;4953774;28;20185;-68
2023/11/06 07:42:16;;;;;;;9.50;5.17;;;15.10;99.90;;;;;;4954028;28;20623;-67
2023/11/06 07:44:42;;;;;;;7.07;4.00;;;15.10;99.90;;;;;;4953297;28;20185;-68
2023/11/06 07:47:08;;;;;;;8.27;4.53;;;15.20;99.90;;;;;;4951780;29;20437;-67
2023/11/06 07:49:35;;;;;;;9.33;4.77;;;15.30;99.90;;;;;;4952958;28;20517;-67
2023/11/06 07:52:06;;;;;;;11.47;7.93;;;15.10;99.90;;;;;;4953650;28;20499;-67
2023/11/06 07:54:32;;;;;;;6.70;5.80;;;15.20;99.90;;;;;;4952917;28;20425;-67
2023/11/06 07:56:59;;;;;;;6.70;5.60;;;15.00;99.90;;;;;;4953990;28;20814;-67
2023/11/06 07:59:25;;;;;;;7.03;6.03;;;14.80;99.90;;;;;;4953417;28;20430;-67
2023/11/06 08:01:50;;;;;;;9.60;5.60;;;14.90;99.90;;;;;;4951719;29;20946;-67
2023/11/06 08:04:16;;;;;;;7.60;4.63;;;15.00;99.90;;;;;;4952902;28;20685;-67
2023/11/06 08:06:42;;;;;;;7.23;4.83;;;15.00;99.90;;;;;;4952515;28;20237;-67
2023/11/06 08:09:09;;;;;;;6.93;4.73;;;15.00;99.90;;;;;;4953426;28;20673;-67
2023/11/06 08:11:35;;;;;;;4.93;4.53;;;15.00;99.90;;;;;;4953023;28;20548;-66
2023/11/06 08:14:04;;;;;;;6.57;5.43;;;14.80;99.90;;;;;;4953508;28;20438;-67
2023/11/06 08:16:35;;;;;;;7.00;4.90;;;14.70;99.90;;;;;;4952618;28;20491;-67
2023/11/06 08:19:02;;;;;;;7.23;4.23;;;14.70;99.90;;;;;;4953727;28;20437;-67
2023/11/06 08:21:28;;;;;;;7.23;4.90;;;14.60;99.90;;;;;;4952715;29;20795;-67
2023/11/06 08:23:54;;;;;;;6.00;5.50;;;14.50;99.90;;;;;;4954158;29;20433;-67
2023/11/06 08:26:20;;;;;;;6.27;4.27;;;14.50;99.90;;;;;;4953382;29;20182;-67
2023/11/06 08:28:46;;;;;;;6.70;3.20;;;14.50;99.90;;;;;;4952145;28;20188;-66
2023/11/06 08:31:16;;;;;;;6.73;3.07;;;14.50;99.90;;;;;;4953441;28;20602;-67
2023/11/06 08:33:42;;;;;;;7.13;2.83;;;14.60;99.90;;;;;;4955064;28;20494;-71
2023/11/06 08:36:08;;;;;;;5.63;4.90;;;14.50;99.90;;;;;;4957551;28;20445;-70
2023/11/06 08:38:34;;;;;;;5.57;4.47;;;14.40;99.90;;;;;;4957318;28;20424;-70
2023/11/06 08:41:02;;;;;;;8.93;4.00;;;14.20;99.90;;;;;;4956792;28;20439;-70
2023/11/06 08:43:27;;;;;;;9.60;4.03;;;14.00;99.90;;;;;;4956228;28;20452;-71
2023/11/06 08:45:53;;;;;;;4.03;3.50;;;13.80;99.90;;;;;;4951147;28;20518;-71
2023/11/06 08:48:19;;;;;;;7.30;3.37;;;13.50;99.90;;;;;;4946206;28;20664;-71
2023/11/06 08:50:45;;;;;;;6.30;3.37;;;13.40;99.90;;;;;;4940826;29;21041;-70
2023/11/06 08:53:11;;;;;;;5.23;3.00;;;13.40;99.90;;;;;;4956945;28;20184;-71
2023/11/06 08:55:36;;;;;;;4.13;3.73;;;13.40;99.90;;;;;;4956401;29;20297;-70
2023/11/06 08:58:02;;;;;;;4.00;3.20;;;13.40;99.90;;;;;;4955939;29;20199;-69
2023/11/06 09:00:29;;;;;;;6.57;3.07;;;13.50;99.90;;;;;;4956303;28;20192;-67
2023/11/06 09:02:55;;;;;;;6.00;4.03;;;13.60;99.90;;;;;;4956596;28;20536;-69
2023/11/06 09:05:21;;;;;;;6.87;3.03;;;13.60;99.90;;;;;;4954595;28;20432;-68
2023/11/06 09:07:47;;;;;;;5.60;2.60;;;13.70;99.90;;;;;;4943624;28;20267;-69
2023/11/06 09:10:14;;;;;;;3.97;3.47;;;13.90;99.90;;;;;;4952266;29;20551;-68
2023/11/06 09:12:40;;;;;;;6.00;4.13;;;14.20;99.90;;;;;;4942116;29;20186;-69
2023/11/06 09:15:07;;;;;;;4.63;4.23;;;14.40;99.90;;;;;;4955870;28;20510;-68
2023/11/06 09:17:33;;;;;;;5.23;3.70;;;14.30;99.90;;;;;;4955874;28;20481;-68
2023/11/06 09:19:58;;;;;;;6.00;4.03;;;14.30;99.90;;;;;;4956703;28;20466;-68
2023/11/06 09:22:25;;;;;;;4.83;4.40;;;14.50;99.90;;;;;;4954369;29;20241;-68
2023/11/06 09:24:50;;;;;;;8.23;4.20;;;14.70;99.90;;;;;;4955190;28;20214;-68
2023/11/06 09:27:16;;;;;;;5.60;4.20;;;15.00;99.90;;;;;;4955613;29;20441;-68
2023/11/06 09:29:42;;;;;;;4.30;3.87;;;15.10;99.90;;;;;;4956043;29;20194;-68
2023/11/06 09:32:07;;;;;;;5.13;4.70;;;15.20;99.90;;;;;;4950629;29;20203;-68
2023/11/06 09:34:35;;;;;;;5.60;5.10;;;15.10;99.40;;;;;;4948302;28;20179;-66
2023/11/06 09:37:01;;;;;;;3.90;2.40;;;15.10;99.70;;;;;;4950153;28;20463;-64
2023/11/06 09:39:26;;;;;;;4.27;2.30;;;15.00;99.70;;;;;;4955253;29;20458;-66
2023/11/06 09:41:54;;;;;;;3.30;2.17;;;15.00;99.90;;;;;;4955246;29;20238;-65
2023/11/06 09:44:21;;;;;;;4.40;4.00;;;15.00;99.90;;;;;;4954545;28;20180;-67
2023/11/06 09:46:47;;;;;;;5.90;3.10;;;14.80;99.90;;;;;;4955825;28;20883;-68
2023/11/06 09:49:16;;;;;;;5.97;4.50;;;14.80;99.90;;;;;;4956862;28;20486;-68
2023/11/06 09:51:52;;;;;;;2.77;2.20;;;14.80;99.90;;;;;;4953931;28;20464;-68
2023/11/06 09:54:20;;;;;;;6.83;3.73;;;14.70;99.90;;;;;;4956459;28;20534;-68
2023/11/06 09:56:46;;;;;;;2.17;1.83;;;14.60;99.70;;;;;;4954892;28;20987;-68
2023/11/06 09:59:12;;;;;;;3.20;1.63;;;14.70;99.90;;;;;;4956628;29;20394;-68
2023/11/06 10:01:38;;;;;;;3.07;2.50;;;14.90;99.90;;;;;;4953503;28;20184;-67
2023/11/06 10:04:05;;;;;;;4.10;2.87;;;15.20;98.60;;;;;;4959850;28;20822;-67
2023/11/06 10:06:34;;;;;;;3.70;2.70;;;15.40;98.50;;;;;;4954878;28;20819;-66
2023/11/06 10:09:18;;;;;;;3.60;2.50;;;15.80;97.30;;;;;;4954617;29;20429;-68
2023/11/06 10:11:43;;;;;;;5.13;3.30;;;16.20;96.30;;;;;;4955551;28;20454;-68
2023/11/06 10:14:10;;;;;;;4.83;3.20;;;16.40;95.80;;;;;;4955592;29;20980;-68
2023/11/06 10:16:37;;;;;;;4.43;4.03;;;16.80;94.60;;;;;;4955336;28;20315;-66
2023/11/06 10:19:13;;;;;;;5.87;4.30;;;17.10;94.60;;;;;;4955568;28;20442;-66
2023/11/06 10:21:43;;;;;;;6.57;5.40;;;17.30;92.90;;;;;;4954498;29;20432;-67
2023/11/06 10:24:13;;;;;;;4.70;4.13;;;17.20;92.90;;;;;;4955573;28;20412;-67
2023/11/06 10:26:39;;;;;;;5.13;4.47;;;17.00;93.10;;;;;;4954855;29;20492;-66
2023/11/06 10:29:16;;;;;;;4.70;3.80;;;16.90;93.30;;;;;;4953013;28;20515;-67
2023/11/06 10:31:48;;;;;;;4.40;4.00;;;16.80;93.70;;;;;;4953537;28;20211;-65
2023/11/06 10:34:29;;;;;;;4.20;3.83;;;16.70;93.70;;;;;;4954582;28;20439;-67
2023/11/06 10:37:13;;;;;;;2.90;2.73;;;16.50;93.30;;;;;;4954373;28;20459;-67
2023/11/06 10:39:56;;;;;;;2.93;2.70;;;16.40;94.50;;;;;;4935829;29;20417;-67
2023/11/06 10:42:23;;;;;;;5.00;3.20;;;16.30;94.50;;;;;;4935866;29;20961;-63
2023/11/06 10:44:58;;;;;;;4.37;3.97;;;16.20;94.40;;;;;;4936007;29;20449;-67
2023/11/06 10:47:34;;;;;;;2.87;2.67;;;16.10;95.30;;;;;;4936073;29;20405;-67
2023/11/06 10:50:12;;;;;;;3.00;2.70;;;16.00;95.40;;;;;;4936456;29;20417;-67
2023/11/06 10:52:45;;;;;;;7.33;3.00;;;15.80;95.80;;;;;;4935684;29;20401;-68
2023/11/06 10:55:13;;;;;;;5.70;3.57;;;15.80;96.00;;;;;;4944092;29;20431;-68
2023/11/06 10:57:40;;;;;;;4.87;3.47;;;15.60;95.50;;;;;;4954408;28;20780;-67
2023/11/06 11:00:10;;;;;;;4.20;3.80;;;15.60;96.20;;;;;;4955529;28;20789;-68
2023/11/06 11:02:49;;;;;;;6.53;3.40;;;15.60;96.70;;;;;;4954902;28;20761;-67
2023/11/06 11:05:18;;;;;;;4.57;3.07;;;15.70;96.00;;;;;;4955447;28;20482;-67
2023/11/06 11:07:47;;;;;;;6.43;3.07;;;15.80;96.50;;;;;;4954515;28;20446;-68
2023/11/06 11:10:17;;;;;;;3.93;2.93;;;15.80;96.10;;;;;;4955266;28;20499;-68
2023/11/06 11:12:44;;;;;;;4.83;2.83;;;15.80;95.60;;;;;;4954779;28;20620;-67
2023/11/06 11:15:10;;;;;;;4.10;3.90;;;15.90;95.40;;;;;;4955169;28;20542;-68
2023/11/06 11:17:36;;;;;;;5.10;3.43;;;16.00;95.50;;;;;;4954406;28;20471;-67
2023/11/06 11:20:06;;;;;;;4.53;4.13;;;16.00;94.60;;;;;;4954108;29;20208;-68
2023/11/06 11:22:32;;;;;;;4.47;3.93;;;16.00;94.70;;;;;;4954487;28;20401;-68
2023/11/06 11:25:04;;;;;;;5.00;4.50;;;16.20;94.90;;;;;;4955186;28;20412;-68
2023/11/06 11:27:30;;;;;;;6.43;4.57;;;16.40;94.80;;;;;;4954496;28;20303;-67
2023/11/06 11:29:56;;;;;;;4.57;4.30;;;16.40;94.40;;;;;;4954907;28;20421;-68
2023/11/06 11:32:49;;;;;;;6.83;4.43;;;16.30;94.00;;;;;;4954995;28;20909;-68
2023/11/06 11:35:19;;;;;;;6.27;5.00;;;16.10;94.30;;;;;;4955013;28;20179;-68
2023/11/06 11:37:53;;;;;;;4.73;2.63;;;16.00;94.40;;;;;;4954327;28;20409;-68
2023/11/06 11:40:19;;;;;;;9.53;2.33;;;15.80;94.90;;;;;;4955124;29;20498;-68
2023/11/06 11:42:45;;;;;;;4.50;3.70;;;15.80;95.20;;;;;;4953121;28;20706;-67
2023/11/06 11:45:29;;;;;;;4.63;4.27;;;15.80;95.70;;;;;;4954897;28;20424;-68
2023/11/06 11:47:55;;;;;;;6.27;3.00;;;15.90;95.70;;;;;;4954429;28;20470;-67
2023/11/06 11:50:27;;;;;;;3.90;2.50;;;16.00;96.20;;;;;;4953626;28;20944;-68
2023/11/06 11:52:57;;;;;;;5.37;2.90;;;16.10;95.80;;;;;;4954383;29;20713;-68
2023/11/06 11:55:37;;;;;;;5.43;3.87;;;16.10;95.70;;;;;;4954241;28;20409;-68
2023/11/06 11:58:09;;;;;;;3.33;3.00;;;16.20;95.20;;;;;;4954692;28;20413;-68
2023/11/06 12:00:40;;;;;;;7.03;3.20;;;16.10;95.00;;;;;;4954350;28;20818;-68
2023/11/06 12:03:10;;;;;;;4.73;3.43;;;16.00;94.70;;;;;;4953332;29;20405;-68
2023/11/06 12:05:37;;;;;;;4.37;2.70;;;15.90;95.40;;;;;;4953676;28;20766;-68
2023/11/06 12:08:20;;;;;;;3.17;2.63;;;15.70;94.70;;;;;;4953164;28;20505;-68
2023/11/06 12:10:48;;;;;;;2.77;2.57;;;15.60;95.20;;;;;;4951648;28;20511;-70
2023/11/06 12:13:22;;;;;;;5.97;3.10;;;15.50;95.90;;;;;;4953282;28;20435;-69
2023/11/06 12:15:52;;;;;;;4.47;2.90;;;15.50;96.10;;;;;;4953270;28;20537;-69
2023/11/06 12:18:23;;;;;;;3.17;2.60;;;15.50;96.30;;;;;;4954027;28;20428;-69
2023/11/06 12:20:56;;;;;;;3.00;2.83;;;15.40;96.10;;;;;;4953891;28;20404;-70
2023/11/06 12:23:36;;;;;;;3.37;2.97;;;15.20;96.60;;;;;;4954284;28;20942;-72
2023/11/06 12:26:14;;;;;;;3.07;2.50;;;15.10;96.60;;;;;;4954422;28;20419;-70
2023/11/06 12:28:45;;;;;;;2.97;2.73;;;15.00;96.80;;;;;;4949207;28;20426;-69
2023/11/06 12:31:11;;;;;;;2.53;2.43;;;15.00;97.30;;;;;;4948033;29;20804;-69
2023/11/06 12:33:37;;;;;;;2.90;2.40;;;15.00;97.90;;;;;;4953712;28;20490;-67
2023/11/06 12:36:03;;;;;;;3.37;2.27;;;14.90;98.00;;;;;;4954122;28;20585;-70
2023/11/06 12:38:36;;;;;;;3.77;2.77;;;14.90;98.10;;;;;;4952486;28;20193;-65
2023/11/06 12:41:05;;;;;;;2.50;2.30;;;14.90;99.80;;;;;;4953650;28;20434;-70
2023/11/06 12:43:34;;;;;;;6.10;3.07;;;15.00;99.90;;;;;;4953203;29;20413;-68
2023/11/06 12:46:02;;;;;;;3.13;2.53;;;15.00;99.90;;;;;;4953894;28;20448;-70